Time;durP1;ratioP1;P1;durP2;ratioP2;P2;SDS_P1;SDS_P2;PMS_P1;PMS_P2;Temp;Humidity;BMP_temperature;BMP_pressure;BME280_temperature;BME280_humidity;BME280_pressure;Samples;Min_cycle;Max_cycle;Signal;HPM_P1;HPM_P2
2023/11/02 00:00:34;;;;;;;28.70;14.90;;;;;;;10.85;78.07;98815.83;109085;1257;60629;-57
2023/11/02 00:03:02;;;;;;;8.80;6.50;;;;;;;10.70;79.12;98820.27;109079;1257;60284;-56
2023/11/02 00:06:09;;;;;;;25.90;13.30;;;;;;;10.63;79.46;98819.65;109169;1256;75413;-56
2023/11/02 00:08:36;;;;;;;19.90;13.00;;;;;;;10.48;80.48;98815.86;108762;1262;69052;-55
2023/11/02 00:11:03;;;;;;;19.40;10.70;;;;;;;10.45;80.66;98812.70;109059;1256;72575;-58
2023/11/02 00:13:30;;;;;;;34.80;18.20;;;;;;;10.41;80.73;98812.92;109054;1257;59835;-56
2023/11/02 00:16:02;;;;;;;12.80;8.70;;;;;;;10.34;81.28;98803.87;109174;1257;59777;-57
2023/11/02 00:18:30;;;;;;;36.60;20.00;;;;;;;10.27;81.77;98799.79;109148;1256;74235;-55
2023/11/02 00:20:58;;;;;;;24.10;13.50;;;;;;;10.34;81.34;98805.59;109201;1256;66686;-56
2023/11/02 00:23:35;;;;;;;26.30;15.20;;;;;;;10.30;81.47;98806.45;109162;1256;72629;-55
2023/11/02 00:26:02;;;;;;;10.90;7.80;;;;;;;10.20;82.11;98806.86;108973;1257;61131;-58
2023/11/02 00:28:31;;;;;;;6.90;5.60;;;;;;;10.27;81.73;98807.66;109077;1257;59885;-57
2023/11/02 00:30:58;;;;;;;14.60;7.30;;;;;;;10.24;81.21;98805.56;109170;1256;75342;-57
2023/11/02 00:33:25;;;;;;;15.00;9.70;;;;;;;10.22;81.38;98801.28;109132;1256;68644;-55
2023/11/02 00:35:52;;;;;;;26.60;15.00;;;;;;;10.17;81.81;98802.67;109043;1257;71187;-58
2023/11/02 00:38:20;;;;;;;12.40;5.30;;;;;;;10.17;81.53;98805.99;109142;1256;59776;-56
2023/11/02 00:40:47;;;;;;;4.70;4.30;;;;;;;10.07;82.28;98813.50;109180;1256;59751;-55
2023/11/02 00:43:14;;;;;;;5.60;4.70;;;;;;;10.14;82.00;98813.61;109104;1257;75220;-56
2023/11/02 00:45:41;;;;;;;10.30;4.90;;;;;;;10.27;81.03;98810.93;109450;1251;67767;-55
2023/11/02 00:48:13;;;;;;;5.40;4.80;;;;;;;10.27;80.81;98816.20;109659;1251;72599;-56
2023/11/02 00:50:43;;;;;;;19.30;13.10;;;;;;;10.31;80.43;98812.51;109654;1251;61020;-55
2023/11/02 00:53:11;;;;;;;9.40;4.90;;;;;;;10.34;80.05;98819.64;109657;1251;59744;-56
2023/11/02 00:55:38;;;;;;;4.90;4.40;;;;;;;10.32;80.19;98819.41;109618;1251;75470;-55
2023/11/02 00:58:16;;;;;;;6.70;4.70;;;;;;;10.20;81.02;98815.48;109392;1251;67347;-56
2023/11/02 01:00:52;;;;;;;6.00;4.70;;;;;;;10.22;80.96;98816.98;109296;1251;72767;-59
2023/11/02 01:03:22;;;;;;;9.00;4.10;;;;;;;10.21;81.25;98819.67;109539;1252;61168;-56
2023/11/02 01:05:49;;;;;;;5.60;4.80;;;;;;;10.21;81.09;98817.36;109634;1252;59694;-55
2023/11/02 01:08:16;;;;;;;15.00;7.60;;;;;;;10.30;80.53;98814.34;109680;1250;74067;-56
2023/11/02 01:10:43;;;;;;;16.20;8.20;;;;;;;10.29;80.39;98819.36;109660;1251;67485;-55
2023/11/02 01:13:14;;;;;;;7.00;4.70;;;;;;;10.23;81.13;98824.87;109381;1251;72974;-55
2023/11/02 01:15:43;;;;;;;10.90;7.10;;;;;;;10.17;81.48;98827.55;109728;1250;59837;-56
2023/11/02 01:18:11;;;;;;;5.90;4.90;;;;;;;10.21;81.59;98824.55;109752;1251;59674;-55
2023/11/02 01:20:43;;;;;;;5.40;4.90;;;;;;;10.17;82.02;98826.38;109775;1251;75488;-57
2023/11/02 01:23:14;;;;;;;5.70;5.10;;;;;;;10.22;81.76;98824.39;109732;1251;69026;-55
2023/11/02 01:25:45;;;;;;;5.80;4.20;;;;;;;10.24;81.45;98828.27;109598;1251;72477;-56
2023/11/02 01:28:22;;;;;;;17.90;8.10;;;;;;;10.29;81.02;98822.55;109736;1250;61105;-55
2023/11/02 01:31:01;;;;;;;24.50;12.90;;;;;;;10.36;80.73;98824.63;109620;1251;59835;-55
2023/11/02 01:33:33;;;;;;;14.20;8.50;;;;;;;10.22;81.91;98817.84;109803;1250;75475;-56
2023/11/02 01:36:01;;;;;;;8.30;6.30;;;;;;;10.24;81.89;98814.95;109603;1250;67621;-55
2023/11/02 01:38:31;;;;;;;6.80;6.10;;;;;;;10.30;81.83;98814.10;109654;1250;72749;-55
2023/11/02 01:41:03;;;;;;;7.80;4.50;;;;;;;10.18;82.30;98816.03;109715;1251;59803;-55
2023/11/02 01:43:37;;;;;;;17.20;8.70;;;;;;;10.09;82.87;98818.33;109770;1251;59830;-55
2023/11/02 01:46:04;;;;;;;5.80;5.20;;;;;;;10.06;83.06;98819.23;109638;1251;75452;-55
2023/11/02 01:48:35;;;;;;;7.30;5.70;;;;;;;9.98;83.65;98817.42;109751;1251;67444;-56
2023/11/02 01:51:03;;;;;;;5.80;5.30;;;;;;;9.92;83.95;98814.58;109698;1250;72600;-57
2023/11/02 01:53:30;;;;;;;;;;;;;;;9.82;84.92;98817.34;109616;1251;59777;-56
2023/11/02 01:56:07;;;;;;;9.60;6.80;;;;;;;9.79;85.55;98819.11;109424;1251;59695;-56
2023/11/02 01:58:55;;;;;;;26.10;15.00;;;;;;;9.82;85.17;98820.46;109688;1251;74255;-56
2023/11/02 02:01:32;;;;;;;154.80;62.30;;;;;;;9.75;85.99;98819.55;109628;1252;67120;-56
2023/11/02 02:04:24;;;;;;;80.90;40.50;;;;;;;9.77;86.03;98820.73;109555;1251;72581;-56
2023/11/02 02:07:09;;;;;;;8.30;6.30;;;;;;;9.74;87.08;98816.91;109594;1251;61059;-55
2023/11/02 02:09:43;;;;;;;513.40;169.80;;;;;;;9.75;86.99;98821.52;109406;1252;60767;-56
2023/11/02 02:12:21;;;;;;;194.80;71.90;;;;;;;9.73;86.69;98823.18;109658;1251;75376;-56
2023/11/02 02:15:22;;;;;;;57.40;25.10;;;;;;;9.71;86.91;98824.68;109575;1251;67307;-55
2023/11/02 02:18:03;;;;;;;47.10;30.00;;;;;;;9.65;87.41;98824.30;109390;1250;71520;-56
2023/11/02 02:20:34;;;;;;;20.10;12.30;;;;;;;9.64;87.24;98828.10;109414;1251;59999;-56
2023/11/02 02:23:15;;;;;;;55.30;38.50;;;;;;;9.63;87.25;98831.31;109503;1251;60448;-56
2023/11/02 02:26:07;;;;;;;22.20;14.10;;;;;;;9.61;87.67;98835.06;109278;1251;75385;-57
2023/11/02 02:28:45;;;;;;;20.00;13.40;;;;;;;9.69;87.17;98833.79;109743;1251;67497;-56
2023/11/02 02:31:55;;;;;;;12.00;7.90;;;;;;;9.57;87.83;98832.91;109722;1250;72623;-55
2023/11/02 02:34:34;;;;;;;7.00;6.40;;;;;;;9.51;88.12;98833.00;108940;1259;59992;-56
2023/11/02 02:37:10;;;;;;;8.20;6.80;;;;;;;9.43;88.72;98831.31;108965;1259;59888;-55
2023/11/02 02:39:38;;;;;;;6.70;5.40;;;;;;;9.37;89.16;98834.25;108835;1259;75379;-56
2023/11/02 02:42:06;;;;;;;11.80;6.10;;;;;;;9.36;89.09;98836.98;108994;1259;67173;-54
2023/11/02 02:44:32;;;;;;;6.50;5.90;;;;;;;9.36;88.55;98840.19;108962;1259;72828;-56
2023/11/02 02:47:00;;;;;;;6.00;5.50;;;;;;;9.36;88.70;98839.71;108797;1260;60094;-56
2023/11/02 02:49:36;;;;;;;9.20;5.90;;;;;;;9.32;89.07;98843.02;108906;1259;60111;-55
2023/11/02 02:52:04;;;;;;;10.70;6.50;;;;;;;9.18;90.20;98846.77;108947;1259;73750;-56
2023/11/02 02:54:30;;;;;;;6.70;6.10;;;;;;;9.07;91.46;98851.64;108882;1259;67796;-56
2023/11/02 02:56:57;;;;;;;7.30;6.30;;;;;;;9.13;91.07;98853.54;108830;1259;71524;-55
2023/11/02 02:59:24;;;;;;;6.40;5.80;;;;;;;9.16;90.76;98859.13;108894;1259;60149;-56
2023/11/02 03:01:51;;;;;;;10.70;9.30;;;;;;;9.16;91.10;98857.95;108977;1259;59853;-56
2023/11/02 03:04:19;;;;;;;34.50;28.70;;;;;;;9.31;90.78;98860.09;108978;1259;75517;-56
2023/11/02 03:06:54;;;;;;;24.40;19.90;;;;;;;9.42;90.66;98860.30;109001;1259;68563;-56
2023/11/02 03:09:21;;;;;;;12.20;10.90;;;;;;;9.50;90.50;98863.05;109602;1251;70412;-56
2023/11/02 03:11:50;;;;;;;7.50;6.80;;;;;;;9.61;90.49;98865.34;109348;1251;59818;-57
2023/11/02 03:14:17;;;;;;;9.50;6.80;;;;;;;9.67;90.73;98864.92;109680;1250;60376;-56
2023/11/02 03:16:44;;;;;;;7.80;6.50;;;;;;;9.75;89.20;98867.02;109642;1250;74267;-55
2023/11/02 03:19:14;;;;;;;6.00;5.40;;;;;;;9.79;88.95;98864.25;109569;1251;68725;-55
2023/11/02 03:21:41;;;;;;;10.70;6.20;;;;;;;9.85;88.64;98863.79;109631;1251;72496;-56
2023/11/02 03:24:16;;;;;;;6.30;5.20;;;;;;;9.83;88.11;98862.98;109627;1252;61202;-59
2023/11/02 03:26:59;;;;;;;24.70;15.80;;;;;;;9.76;88.02;98862.64;109669;1250;60308;-57
2023/11/02 03:29:44;;;;;;;22.20;14.60;;;;;;;9.75;88.36;98862.42;109632;1250;74264;-55
2023/11/02 03:32:23;;;;;;;22.80;15.50;;;;;;;9.79;88.52;98856.16;109565;1252;66882;-54
2023/11/02 03:35:15;;;;;;;21.90;14.30;;;;;;;9.89;87.50;98856.65;109451;1252;71416;-55
2023/11/02 03:37:44;;;;;;;17.40;13.00;;;;;;;9.88;87.89;98850.39;108984;1259;59924;-55
2023/11/02 03:40:34;;;;;;;15.40;12.10;;;;;;;9.87;87.68;98847.98;108988;1259;60365;-55
2023/11/02 03:43:19;;;;;;;15.50;10.10;;;;;;;9.80;88.28;98847.46;109013;1259;75719;-55
2023/11/02 03:45:50;;;;;;;20.10;11.20;;;;;;;9.83;88.41;98842.87;108996;1259;67486;-55
2023/11/02 03:48:17;;;;;;;15.00;10.50;;;;;;;9.85;88.01;98840.45;108990;1259;71597;-55
2023/11/02 03:50:59;;;;;;;12.50;9.70;;;;;;;9.83;87.95;98842.33;108996;1259;61002;-55
2023/11/02 03:53:33;;;;;;;9.30;8.30;;;;;;;9.70;89.38;98842.52;109010;1259;60307;-56
2023/11/02 03:56:11;;;;;;;7.70;7.00;;;;;;;9.63;89.69;98838.06;109008;1259;75533;-56
2023/11/02 03:58:51;;;;;;;7.70;6.00;;;;;;;9.63;89.70;98840.68;108996;1259;67571;-55
2023/11/02 04:01:30;;;;;;;7.40;6.60;;;;;;;9.50;91.38;98838.40;109004;1259;71554;-55
2023/11/02 04:04:03;;;;;;;6.80;6.10;;;;;;;9.33;92.30;98835.09;108978;1260;60275;-56
2023/11/02 04:06:53;;;;;;;7.40;6.20;;;;;;;9.20;92.09;98833.39;108815;1263;60403;-55
2023/11/02 04:09:23;;;;;;;9.40;6.80;;;;;;;9.08;92.19;98836.27;108707;1264;74105;-56
2023/11/02 04:12:00;;;;;;;8.80;7.00;;;;;;;9.03;92.87;98836.52;108696;1264;68771;-55
2023/11/02 04:14:26;;;;;;;12.10;7.60;;;;;;;9.14;92.82;98838.66;108847;1258;72555;-55
2023/11/02 04:16:53;;;;;;;15.00;11.40;;;;;;;9.12;93.49;98839.14;109020;1258;60247;-55
2023/11/02 04:19:20;;;;;;;16.60;11.00;;;;;;;9.22;93.72;98845.54;109104;1257;59770;-55
2023/11/02 04:21:47;;;;;;;11.50;8.60;;;;;;;9.22;94.45;98845.44;109066;1258;74170;-56
2023/11/02 04:24:13;;;;;;;12.10;9.30;;;;;;;9.25;94.90;98835.11;109099;1257;67541;-56
2023/11/02 04:26:40;;;;;;;11.60;7.90;;;;;;;9.39;93.42;98839.70;109100;1257;72955;-55
2023/11/02 04:29:07;;;;;;;9.90;8.10;;;;;;;9.36;95.63;98843.40;108960;1257;60932;-56
2023/11/02 04:31:33;;;;;;;12.90;9.50;;;;;;;9.42;95.28;98842.29;108971;1257;155179;-56
2023/11/02 04:34:00;;;;;;;43.80;23.10;;;;;;;9.47;95.12;98841.13;109087;1259;74348;-56
2023/11/02 04:36:27;;;;;;;24.20;13.60;;;;;;;9.46;95.05;98843.80;109084;1257;67838;-56
2023/11/02 04:38:54;;;;;;;24.20;15.00;;;;;;;9.34;94.61;98842.96;109075;1257;71419;-55
2023/11/02 04:41:21;;;;;;;42.30;21.30;;;;;;;9.20;94.77;98843.08;109080;1257;60975;-56
2023/11/02 04:43:47;;;;;;;61.70;28.10;;;;;;;9.17;95.41;98846.54;109131;1257;59745;-56
2023/11/02 04:46:14;;;;;;;173.90;72.30;;;;;;;9.21;96.33;98847.73;109163;1253;75313;-55
2023/11/02 04:48:41;;;;;;;97.00;39.60;;;;;;;9.30;96.93;98849.54;109785;1251;68752;-56
2023/11/02 04:51:08;;;;;;;86.20;37.60;;;;;;;9.39;96.68;98851.08;109742;1251;71733;-56
2023/11/02 04:53:34;;;;;;;45.60;20.80;;;;;;;9.44;97.12;98854.62;109413;1256;60285;-55
2023/11/02 04:56:01;;;;;;;36.10;18.40;;;;;;;9.51;96.52;98857.75;109624;1253;60849;-57
2023/11/02 04:58:28;;;;;;;49.40;24.10;;;;;;;9.58;96.65;98862.27;109651;1251;75441;-56
2023/11/02 05:00:55;;;;;;;71.20;35.50;;;;;;;9.70;96.48;98866.32;109704;1253;66792;-56
2023/11/02 05:03:22;;;;;;;193.50;89.00;;;;;;;9.85;95.90;98869.45;109444;1253;71414;-57
2023/11/02 05:05:48;;;;;;;135.00;63.60;;;;;;;9.97;96.05;98873.70;109632;1251;59750;-56
2023/11/02 05:08:15;;;;;;;48.40;24.20;;;;;;;10.10;95.79;98878.94;109311;1251;59937;-55
2023/11/02 05:10:42;;;;;;;63.50;32.40;;;;;;;10.32;94.75;98877.30;109671;1251;75455;-55
2023/11/02 05:13:08;;;;;;;102.30;50.40;;;;;;;10.53;94.06;98884.48;109701;1250;68793;-56
2023/11/02 05:15:35;;;;;;;191.20;99.20;;;;;;;10.63;93.60;98884.86;109642;1251;72706;-56
2023/11/02 05:18:21;;;;;;;130.00;68.50;;;;;;;10.68;93.82;98884.42;109697;1253;60948;-55
2023/11/02 05:20:48;;;;;;;147.20;72.70;;;;;;;10.79;93.42;98880.39;109653;1252;60746;-58
2023/11/02 05:23:14;;;;;;;140.90;74.00;;;;;;;10.78;93.23;98876.83;109733;1251;75763;-54
2023/11/02 05:25:41;;;;;;;64.30;36.00;;;;;;;10.74;94.61;98875.93;109666;1251;67560;-57
2023/11/02 05:28:11;;;;;;;30.10;19.80;;;;;;;10.60;96.44;98879.39;109663;1250;72765;-56
2023/11/02 05:30:39;;;;;;;51.30;30.90;;;;;;;10.55;95.80;98878.80;109641;1253;59755;-55
2023/11/02 05:33:06;;;;;;;30.70;17.70;;;;;;;10.51;96.00;98888.02;109662;1250;60203;-57
2023/11/02 05:35:33;;;;;;;20.00;13.40;;;;;;;10.54;95.65;98890.77;109664;1251;74053;-57
2023/11/02 05:38:00;;;;;;;25.60;16.70;;;;;;;10.43;97.48;98891.16;109662;1251;67656;-57
2023/11/02 05:40:26;;;;;;;21.30;13.20;;;;;;;10.48;98.52;98891.85;109562;1252;72372;-57
2023/11/02 05:42:53;;;;;;;25.00;16.70;;;;;;;10.77;97.21;98889.56;109616;1251;61046;-55
2023/11/02 05:45:21;;;;;;;16.60;11.60;;;;;;;10.89;96.25;98894.76;109692;1251;59700;-54
2023/11/02 05:47:48;;;;;;;22.10;16.60;;;;;;;11.10;96.40;98900.08;109660;1253;75180;-56
2023/11/02 05:50:16;;;;;;;109.50;56.20;;;;;;;11.12;95.76;98904.14;109689;1253;67198;-57
2023/11/02 05:52:43;;;;;;;63.80;35.40;;;;;;;11.29;95.54;98901.80;109647;1251;72586;-57
2023/11/02 05:55:10;;;;;;;82.20;35.10;;;;;;;11.75;92.82;98903.57;109642;1251;60283;-54
2023/11/02 05:57:36;;;;;;;88.40;37.50;;;;;;;11.73;91.99;98901.11;109687;1254;59854;-55
2023/11/02 06:00:08;;;;;;;144.60;52.90;;;;;;;11.56;93.34;98896.04;109754;1251;75401;-56
2023/11/02 06:02:35;;;;;;;87.30;35.90;;;;;;;11.43;93.85;98897.27;109496;1251;67515;-57
2023/11/02 06:05:05;;;;;;;48.60;24.10;;;;;;;11.21;95.99;98898.16;109602;1252;72406;-57
2023/11/02 06:07:32;;;;;;;;;;;;;;;11.69;94.33;98892.15;109408;1253;59726;-57
2023/11/02 06:09:58;;;;;;;20.60;13.50;;;;;;;11.64;93.07;98894.38;109671;1253;60011;-56
2023/11/02 06:12:26;;;;;;;23.70;16.10;;;;;;;11.71;93.21;98892.85;109377;1253;75442;-57
2023/11/02 06:14:53;;;;;;;18.50;13.80;;;;;;;11.94;92.26;98892.29;109598;1252;67479;-56
2023/11/02 06:17:20;;;;;;;14.80;10.90;;;;;;;12.31;89.76;98894.21;109631;1251;72485;-56
2023/11/02 06:19:46;;;;;;;26.10;12.20;;;;;;;12.45;88.24;98895.86;109745;1255;61225;-56
2023/11/02 06:22:13;;;;;;;15.40;12.00;;;;;;;12.67;87.25;98895.64;109529;1251;60123;-54
2023/11/02 06:24:41;;;;;;;17.10;12.40;;;;;;;12.83;85.51;98899.83;109405;1251;75425;-57
2023/11/02 06:27:08;;;;;;;15.80;11.90;;;;;;;13.08;84.65;98897.92;109646;1251;67204;-56
2023/11/02 06:29:35;;;;;;;14.40;11.20;;;;;;;13.61;81.43;98898.45;109668;1251;72803;-56
2023/11/02 06:32:03;;;;;;;18.70;12.60;;;;;;;13.92;79.03;98901.81;109626;1251;60437;-57
2023/11/02 06:34:35;;;;;;;15.00;12.50;;;;;;;13.98;77.19;98903.02;109561;1251;59815;-60
2023/11/02 06:37:01;;;;;;;14.70;10.20;;;;;;;14.34;76.00;98903.20;109582;1255;75577;-56
2023/11/02 06:39:28;;;;;;;11.60;8.60;;;;;;;14.59;73.31;98903.61;109410;1258;67765;-57
2023/11/02 06:41:55;;;;;;;16.10;10.20;;;;;;;14.96;71.26;98905.39;109618;1254;72502;-56
2023/11/02 06:44:23;;;;;;;16.90;10.30;;;;;;;15.08;69.86;98903.77;109516;1252;60444;-57
2023/11/02 06:46:51;;;;;;;11.60;9.50;;;;;;;15.20;68.79;98905.89;109201;1253;60400;-57
2023/11/02 06:49:18;;;;;;;12.70;9.70;;;;;;;15.15;68.63;98905.82;109599;1253;75328;-56
2023/11/02 06:51:45;;;;;;;11.30;8.70;;;;;;;15.31;68.41;98909.23;109568;1253;67333;-56
2023/11/02 06:54:11;;;;;;;12.00;7.70;;;;;;;15.35;66.43;98910.58;109580;1252;71148;-57
2023/11/02 06:56:38;;;;;;;8.40;7.50;;;;;;;15.32;67.84;98914.14;109558;1253;61829;-57
2023/11/02 06:59:05;;;;;;;13.30;8.70;;;;;;;15.19;67.18;98918.81;109535;1251;59778;-57
2023/11/02 07:01:33;;;;;;;10.60;8.70;;;;;;;15.39;66.65;98920.65;109577;1254;74171;-55
2023/11/02 07:04:00;;;;;;;19.80;14.70;;;;;;;15.48;66.38;98922.85;109610;1251;66281;-56
2023/11/02 07:06:27;;;;;;;19.40;13.00;;;;;;;15.65;65.31;98927.10;109639;1251;71472;-57
2023/11/02 07:08:54;;;;;;;27.40;18.70;;;;;;;15.71;64.14;98928.80;109487;1257;61969;-57
2023/11/02 07:11:21;;;;;;;63.40;30.90;;;;;;;15.58;64.78;98926.38;109509;1253;59823;-57
2023/11/02 07:13:48;;;;;;;46.30;26.10;;;;;;;15.76;64.25;98927.66;109533;1253;75520;-57
2023/11/02 07:16:15;;;;;;;20.70;13.20;;;;;;;16.04;63.22;98927.70;109565;1254;68958;-57
2023/11/02 07:18:42;;;;;;;12.60;8.70;;;;;;;16.10;62.96;98935.74;109516;1253;72411;-56
2023/11/02 07:21:08;;;;;;;16.10;11.30;;;;;;;16.40;61.85;98943.95;109492;1254;61942;-57
2023/11/02 07:23:37;;;;;;;57.40;32.40;;;;;;;16.73;60.55;98943.70;109487;1254;60125;-57
2023/11/02 07:26:05;;;;;;;36.70;22.80;;;;;;;16.46;61.01;98944.07;109554;1252;75313;-56
2023/11/02 07:28:31;;;;;;;15.30;11.00;;;;;;;16.68;60.17;98940.68;109516;1253;68734;-57
2023/11/02 07:30:58;;;;;;;17.60;10.10;;;;;;;16.54;60.22;98937.27;109495;1254;72512;-57
2023/11/02 07:33:25;;;;;;;15.80;11.20;;;;;;;16.40;61.73;98934.19;109526;1253;59837;-57
2023/11/02 07:35:51;;;;;;;55.60;30.80;;;;;;;16.66;61.32;98934.65;109267;1254;60047;-57
2023/11/02 07:38:18;;;;;;;18.00;12.70;;;;;;;16.88;60.25;98935.41;109543;1253;75569;-58
2023/11/02 07:40:45;;;;;;;18.50;12.00;;;;;;;16.71;60.30;98932.27;109531;1253;66336;-58
2023/11/02 07:43:12;;;;;;;11.30;9.40;;;;;;;16.78;60.91;98927.42;109476;1254;71387;-57
2023/11/02 07:45:38;;;;;;;16.90;10.60;;;;;;;17.13;59.69;98924.64;109533;1254;61761;-58
2023/11/02 07:48:05;;;;;;;39.30;26.30;;;;;;;17.19;58.88;98923.13;109130;1252;59812;-56
2023/11/02 07:50:32;;;;;;;188.60;113.90;;;;;;;16.96;60.20;98924.77;109539;1253;75494;-58
2023/11/02 07:52:59;;;;;;;39.90;22.60;;;;;;;17.05;60.67;98927.66;109476;1253;68685;-57
2023/11/02 07:55:26;;;;;;;52.50;29.60;;;;;;;16.99;60.43;98932.16;109580;1253;71521;-57
2023/11/02 07:57:53;;;;;;;58.60;33.00;;;;;;;17.14;59.88;98930.96;109514;1256;61852;-58
2023/11/02 08:00:20;;;;;;;16.70;10.80;;;;;;;17.03;61.01;98933.26;109557;1253;60349;-57
2023/11/02 08:02:46;;;;;;;13.10;9.90;;;;;;;16.98;61.61;98936.04;109550;1253;75330;-57
2023/11/02 08:05:13;;;;;;;15.10;11.60;;;;;;;16.99;61.78;98932.85;109590;1253;67719;-58
2023/11/02 08:07:40;;;;;;;27.40;17.50;;;;;;;17.19;62.33;98932.52;109581;1254;70512;-57
2023/11/02 08:10:07;;;;;;;43.00;27.80;;;;;;;17.37;61.08;98931.85;109600;1251;61831;-57
2023/11/02 08:12:34;;;;;;;189.80;80.10;;;;;;;17.34;60.74;98932.15;109692;1251;60104;-58
2023/11/02 08:15:03;;;;;;;84.00;41.70;;;;;;;17.30;61.50;98931.10;109668;1251;73086;-58
2023/11/02 08:17:30;;;;;;;44.40;28.10;;;;;;;17.25;62.41;98929.23;109644;1251;68784;-58
2023/11/02 08:19:57;;;;;;;56.70;40.70;;;;;;;17.50;61.73;98932.40;109648;1251;71288;-58
2023/11/02 08:22:24;;;;;;;15.80;11.50;;;;;;;17.90;60.86;98932.64;109672;1250;62261;-58
2023/11/02 08:24:50;;;;;;;53.30;28.20;;;;;;;17.74;61.16;98935.00;109679;1251;60083;-60
2023/11/02 08:27:33;;;;;;;20.90;13.60;;;;;;;18.05;60.30;98936.05;109434;1254;75327;-58
2023/11/02 08:30:00;;;;;;;16.90;9.50;;;;;;;18.14;59.93;98932.09;109551;1252;67975;-62
2023/11/02 08:32:27;;;;;;;127.30;68.10;;;;;;;18.28;59.35;98932.58;109668;1251;72496;-57
2023/11/02 08:34:54;;;;;;;22.10;13.70;;;;;;;18.66;57.46;98934.41;109540;1253;60811;-61
2023/11/02 08:37:20;;;;;;;59.80;38.00;;;;;;;19.03;55.62;98937.95;109446;1251;60170;-61
2023/11/02 08:39:47;;;;;;;46.90;25.60;;;;;;;18.84;55.70;98937.69;109598;1251;75225;-61
2023/11/02 08:42:14;;;;;;;20.60;12.60;;;;;;;18.93;56.05;98930.69;109557;1251;67288;-58
2023/11/02 08:44:41;;;;;;;54.10;29.50;;;;;;;19.56;54.79;98925.71;109572;1253;72689;-56
2023/11/02 08:47:12;;;;;;;17.00;11.80;;;;;;;19.81;51.88;98925.38;109567;1253;59716;-58
2023/11/02 08:49:40;;;;;;;42.40;30.20;;;;;;;19.69;52.26;98929.33;109617;1252;59787;-57
2023/11/02 08:52:07;;;;;;;17.70;10.00;;;;;;;19.27;53.40;98925.33;109584;1254;74481;-55
2023/11/02 08:54:34;;;;;;;48.40;34.60;;;;;;;19.34;53.75;98921.95;109588;1253;67802;-56
2023/11/02 08:57:01;;;;;;;116.70;78.30;;;;;;;19.69;52.32;98922.83;109554;1254;71333;-56
2023/11/02 08:59:28;;;;;;;28.00;19.60;;;;;;;20.17;50.79;98930.65;109144;1253;61103;-56
2023/11/02 09:01:56;;;;;;;10.60;6.40;;;;;;;20.17;49.90;98928.54;109541;1254;59800;-56
2023/11/02 09:04:24;;;;;;;15.10;8.50;;;;;;;20.26;48.35;98929.96;109369;1251;75385;-56
2023/11/02 09:06:51;;;;;;;;;;;;;;;20.61;47.86;98930.52;109563;1251;68593;-56
2023/11/02 09:09:18;;;;;;;36.50;16.40;;;;;;;20.44;47.68;98926.33;109301;1251;71604;-57
2023/11/02 09:11:45;;;;;;;93.60;50.00;;;;;;;20.47;48.20;98927.14;109617;1251;59771;-58
2023/11/02 09:14:12;;;;;;;27.70;18.50;;;;;;;19.75;49.13;98925.89;109643;1251;59782;-56
2023/11/02 09:16:38;;;;;;;35.80;22.50;;;;;;;20.11;47.91;98928.14;109672;1251;74754;-59
2023/11/02 09:19:05;;;;;;;11.90;9.30;;;;;;;19.36;49.52;98925.23;109642;1251;66320;-58
2023/11/02 09:21:36;;;;;;;18.30;12.30;;;;;;;19.61;49.62;98925.36;109606;1251;71489;-57
2023/11/02 09:24:04;;;;;;;10.50;8.10;;;;;;;20.37;47.81;98929.59;109655;1251;60321;-58
2023/11/02 09:26:31;;;;;;;151.40;84.30;;;;;;;20.46;47.08;98928.27;109659;1251;60202;-61
2023/11/02 09:28:58;;;;;;;9.20;6.80;;;;;;;20.27;47.05;98927.89;109694;1251;75218;-60
2023/11/02 09:31:29;;;;;;;10.00;7.70;;;;;;;20.25;47.63;98924.95;109663;1251;68913;-58
2023/11/02 09:34:02;;;;;;;67.10;40.50;;;;;;;20.15;47.92;98920.69;109664;1250;71674;-57
2023/11/02 09:36:30;;;;;;;12.40;7.20;;;;;;;19.84;48.45;98915.60;109627;1251;59758;-61
2023/11/02 09:39:02;;;;;;;45.70;21.60;;;;;;;19.82;48.43;98913.92;109659;1251;59750;-59
2023/11/02 09:41:29;;;;;;;25.20;13.20;;;;;;;20.17;48.16;98914.37;109636;1251;74093;-62
2023/11/02 09:43:56;;;;;;;111.90;51.70;;;;;;;20.57;47.16;98918.70;109613;1250;68704;-62
2023/11/02 09:46:23;;;;;;;74.40;40.80;;;;;;;20.26;47.33;98917.02;109651;1251;71445;-62
2023/11/02 09:48:50;;;;;;;98.40;41.90;;;;;;;20.50;46.58;98911.60;109603;1251;60216;-59
2023/11/02 09:51:17;;;;;;;41.60;20.90;;;;;;;20.48;46.28;98905.45;109631;1251;60339;-60
2023/11/02 09:53:44;;;;;;;174.60;73.80;;;;;;;20.27;46.11;98899.86;109508;1251;75359;-60
2023/11/02 09:56:11;;;;;;;172.90;76.10;;;;;;;19.79;47.87;98894.73;109638;1251;67576;-58
2023/11/02 09:58:37;;;;;;;142.20;61.90;;;;;;;19.79;47.35;98892.40;109590;1251;72456;-61
2023/11/02 10:01:04;;;;;;;83.40;37.60;;;;;;;19.85;47.67;98889.41;109388;1251;60143;-61
2023/11/02 10:03:31;;;;;;;63.30;29.70;;;;;;;19.87;47.18;98890.46;109293;1253;60131;-61
2023/11/02 10:05:58;;;;;;;18.70;10.00;;;;;;;19.74;47.56;98884.73;109602;1250;74344;-58
2023/11/02 10:08:25;;;;;;;228.60;99.70;;;;;;;19.91;46.96;98886.00;109554;1253;69205;-56
2023/11/02 10:11:08;;;;;;;138.40;62.30;;;;;;;19.69;48.54;98880.90;109550;1251;72744;-60
2023/11/02 10:13:35;;;;;;;41.20;21.10;;;;;;;20.22;47.13;98883.49;109407;1253;60377;-58
2023/11/02 10:16:01;;;;;;;54.70;27.90;;;;;;;20.13;46.53;98884.71;109582;1252;60440;-59
2023/11/02 10:18:28;;;;;;;113.50;55.40;;;;;;;20.05;46.91;98879.69;109142;1253;75539;-60
2023/11/02 10:20:55;;;;;;;71.90;34.20;;;;;;;20.40;45.02;98878.91;109580;1251;67641;-60
2023/11/02 10:23:22;;;;;;;32.20;16.20;;;;;;;19.86;45.81;98883.88;109546;1251;72738;-61
2023/11/02 10:25:49;;;;;;;13.00;9.10;;;;;;;20.23;45.49;98883.54;109544;1251;60360;-57
2023/11/02 10:28:15;;;;;;;24.20;13.60;;;;;;;20.50;44.21;98882.31;109586;1251;60435;-56
2023/11/02 10:30:42;;;;;;;57.60;26.10;;;;;;;20.88;43.26;98885.66;109151;1254;74234;-58
2023/11/02 10:33:09;;;;;;;22.50;12.70;;;;;;;20.56;43.27;98882.99;109504;1250;68691;-60
2023/11/02 10:35:39;;;;;;;43.40;22.30;;;;;;;20.57;43.38;98884.36;109559;1251;72657;-58
2023/11/02 10:38:09;;;;;;;15.90;10.20;;;;;;;20.10;43.98;98884.53;109647;1250;60210;-62
2023/11/02 10:40:43;;;;;;;16.40;9.70;;;;;;;20.29;43.65;98879.45;109775;1250;59904;-62
2023/11/02 10:43:20;;;;;;;39.10;21.50;;;;;;;19.97;43.86;98879.05;109601;1250;75495;-60
2023/11/02 10:45:52;;;;;;;8.50;5.70;;;;;;;20.46;43.22;98881.45;109659;1250;68758;-60
2023/11/02 10:48:19;;;;;;;30.20;16.80;;;;;;;20.36;42.91;98872.69;109332;1250;73921;-57
2023/11/02 10:50:47;;;;;;;9.30;5.00;;;;;;;20.36;43.14;98875.04;109595;1253;60607;-61
2023/11/02 10:53:17;;;;;;;10.00;5.80;;;;;;;20.27;43.41;98871.35;109537;1253;61321;-59
2023/11/02 10:55:44;;;;;;;35.00;19.90;;;;;;;20.59;42.40;98869.80;109637;1251;74085;-58
2023/11/02 10:58:10;;;;;;;51.60;28.70;;;;;;;20.87;42.35;98869.88;109535;1252;68123;-62
2023/11/02 11:00:37;;;;;;;51.30;28.60;;;;;;;21.11;41.49;98867.62;109229;1252;72740;-60
2023/11/02 11:03:09;;;;;;;116.50;80.80;;;;;;;20.73;41.92;98865.77;109602;1250;59750;-61
2023/11/02 11:05:36;;;;;;;8.40;5.50;;;;;;;20.55;41.51;98861.60;109557;1251;59733;-56
2023/11/02 11:08:04;;;;;;;30.20;16.60;;;;;;;21.02;41.00;98867.19;109571;1252;75505;-56
2023/11/02 11:10:31;;;;;;;6.00;4.00;;;;;;;21.48;40.79;98866.23;109607;1251;68802;-57
2023/11/02 11:12:58;;;;;;;20.90;11.70;;;;;;;21.70;39.93;98863.55;109578;1250;73550;-58
2023/11/02 11:15:25;;;;;;;12.40;6.80;;;;;;;21.89;39.07;98861.31;109577;1251;59936;-58
2023/11/02 11:17:52;;;;;;;17.00;11.20;;;;;;;21.08;40.06;98862.61;109530;1251;59622;-57
2023/11/02 11:20:19;;;;;;;10.70;6.10;;;;;;;20.99;40.48;98860.59;109667;1251;76916;-58
2023/11/02 11:22:46;;;;;;;5.40;4.20;;;;;;;21.64;39.51;98858.15;109598;1251;68215;-56
2023/11/02 11:25:14;;;;;;;7.00;3.70;;;;;;;21.53;39.41;98854.55;109623;1250;71391;-58
2023/11/02 11:27:41;;;;;;;6.10;5.50;;;;;;;21.74;39.45;98857.20;109588;1251;60203;-56